Time;durP1;ratioP1;P1;durP2;ratioP2;P2;SDS_P1;SDS_P2;PMS_P1;PMS_P2;Temp;Humidity;BMP_temperature;BMP_pressure;BME280_temperature;BME280_humidity;BME280_pressure;Samples;Min_cycle;Max_cycle;Signal;HPM_P1;HPM_P2
2022/06/27 00:00:12;;;;;;;;;;;19.10;99.90;19.20;99347.00;;;;345313;28;96503;-93
2022/06/27 00:00:24;;;;;;;;;;;19.10;99.90;19.30;99341.00;;;;346277;28;82416;-93
2022/06/27 00:00:38;;;;;;;;;;;19.10;99.90;19.30;99352.00;;;;344099;28;96674;-93
2022/06/27 00:00:50;;;;;;;;;;;19.10;99.90;19.20;99347.00;;;;347667;28;83380;-94
2022/06/27 00:01:02;;;;;;;;;;;19.10;99.90;19.20;99346.00;;;;346721;28;97887;-92
2022/06/27 00:01:14;;;;;;;;;;;19.10;99.90;19.20;99347.00;;;;345926;28;82558;-93
2022/06/27 00:01:26;;;;;;;;;;;19.10;99.90;19.20;99354.00;;;;346548;28;96708;-93
2022/06/27 00:01:38;;;;;;;;;;;19.10;99.90;19.20;99357.00;;;;346280;28;83427;-93
2022/06/27 00:01:50;;;;;;;;;;;19.10;99.90;19.20;99346.00;;;;345475;28;95466;-93
2022/06/27 00:02:02;;;;;;;;;;;19.10;99.90;19.20;99356.00;;;;347557;27;82401;-93
2022/06/27 00:02:14;;;;;;;;;;;19.10;99.90;19.30;99347.00;;;;344035;28;95532;-93
2022/06/27 00:02:25;;;;;;;;;;;19.10;99.90;19.30;99352.00;;;;344851;28;83303;-93
2022/06/27 00:02:37;;;;;;;;;;;19.10;99.90;19.40;99350.00;;;;343914;28;96010;-93
2022/06/27 00:02:49;;;;;;;;;;;19.10;99.90;19.30;99354.00;;;;346171;28;83408;-93
2022/06/27 00:03:01;;;;;;;;;;;19.20;99.90;19.30;99349.00;;;;346206;28;93753;-93
2022/06/27 00:03:13;;;;;;;;;;;19.10;99.90;19.20;99351.00;;;;347623;28;83438;-93
2022/06/27 00:03:25;;;;;;;;;;;19.20;99.90;19.20;99344.00;;;;348008;27;94703;-92
2022/06/27 00:03:37;;;;;;;;;;;19.20;99.90;19.20;99347.00;;;;348969;27;83507;-93
2022/06/27 00:03:49;;;;;;;;;;;19.20;99.90;19.20;99353.00;;;;344017;28;96686;-92
2022/06/27 00:04:01;;;;;;;;;;;19.20;99.90;19.20;99357.00;;;;347074;28;83534;-93
2022/06/27 00:04:12;;;;;;;;;;;19.10;99.90;19.30;99348.00;;;;346264;28;96757;-93
2022/06/27 00:04:24;;;;;;;;;;;19.10;99.90;19.40;99348.00;;;;346227;28;83291;-93
2022/06/27 00:04:36;;;;;;;;;;;19.20;99.90;19.20;99348.00;;;;348225;27;95202;-93
2022/06/27 00:04:48;;;;;;;;;;;19.20;99.90;19.20;99347.00;;;;347523;28;83458;-93
2022/06/27 00:05:00;;;;;;;;;;;19.20;99.90;19.30;99348.00;;;;348165;27;95171;-94
2022/06/27 00:05:11;;;;;;;;;;;19.20;99.90;19.20;99353.00;;;;346180;28;83492;-93
2022/06/27 00:05:23;;;;;;;;;;;19.10;99.90;19.20;99355.00;;;;346722;28;94854;-93
2022/06/27 00:05:35;;;;;;;;;;;19.10;99.90;19.10;99352.00;;;;348944;27;82424;-92
2022/06/27 00:05:47;;;;;;;;;;;19.10;99.90;19.20;99346.00;;;;348128;27;97004;-92
2022/06/27 00:05:59;;;;;;;;;;;19.10;99.90;19.30;99352.00;;;;346056;28;83439;-93
2022/06/27 00:06:11;;;;;;;;;;;19.10;99.90;19.30;99346.00;;;;349522;27;97005;-93
2022/06/27 00:06:23;;;;;;;;;;;19.10;99.90;19.30;99348.00;;;;348846;27;83342;-93
2022/06/27 00:06:34;;;;;;;;;;;19.10;99.90;19.40;99345.00;;;;345428;28;95208;-93
2022/06/27 00:06:46;;;;;;;;;;;19.20;99.90;19.40;99344.00;;;;347499;27;83739;-92
2022/06/27 00:06:58;;;;;;;;;;;19.20;99.90;19.40;99341.00;;;;345341;28;96472;-94
2022/06/27 00:07:11;;;;;;;;;;;19.20;99.90;19.30;99338.00;;;;349508;27;83254;-92
2022/06/27 00:07:23;;;;;;;;;;;19.20;99.90;19.30;99343.00;;;;345236;28;96156;-92
2022/06/27 00:07:35;;;;;;;;;;;19.20;99.90;19.40;99346.00;;;;347537;28;83373;-92
2022/06/27 00:07:46;;;;;;;;;;;19.20;99.90;19.40;99335.00;;;;345523;28;95847;-92
2022/06/27 00:07:58;;;;;;;;;;;19.20;99.90;19.40;99346.00;;;;346173;28;82332;-92
2022/06/27 00:08:10;;;;;;;;;;;19.20;99.90;19.40;99343.00;;;;346729;28;96651;-93
2022/06/27 00:08:22;;;;;;;;;;;19.20;99.90;19.40;99332.00;;;;346112;28;83417;-93
2022/06/27 00:08:34;;;;;;;;;;;19.20;99.90;19.40;99333.00;;;;345399;28;96149;-93
2022/06/27 00:08:48;;;;;;;;;;;19.20;99.90;19.40;99340.00;;;;343402;28;83785;-94
2022/06/27 00:08:59;;;;;;;;;;;19.20;99.90;19.40;99345.00;;;;346751;28;96628;-94
2022/06/27 00:09:11;;;;;;;;;;;19.20;99.90;19.30;99335.00;;;;344812;28;82306;-94
2022/06/27 00:09:23;;;;;;;;;;;19.20;99.90;19.40;99335.00;;;;346656;28;96856;-93
2022/06/27 00:09:35;;;;;;;;;;;19.20;99.90;19.30;99339.00;;;;347572;28;82347;-92
2022/06/27 00:09:47;;;;;;;;;;;19.20;99.90;19.30;99334.00;;;;344040;28;97053;-93
2022/06/27 00:09:58;;;;;;;;;;;19.20;99.90;19.20;99337.00;;;;346215;28;83326;-93
2022/06/27 00:10:10;;;;;;;;;;;19.20;99.90;19.20;99335.00;;;;345594;28;96306;-93
2022/06/27 00:10:22;;;;;;;;;;;19.20;99.90;19.30;99333.00;;;;346154;28;83434;-92
2022/06/27 00:10:34;;;;;;;;;;;19.20;99.90;19.30;99339.00;;;;346749;28;96787;-93
2022/06/27 00:10:46;;;;;;;;;;;19.20;99.90;19.30;99341.00;;;;347563;28;83385;-94
2022/06/27 00:10:57;;;;;;;;;;;19.20;99.90;19.40;99339.00;;;;345351;28;96148;-93
2022/06/27 00:11:09;;;;;;;;;;;19.20;99.90;19.30;99332.00;;;;346221;28;83351;-92
2022/06/27 00:11:24;;;;;;;;;;;19.20;99.90;19.20;99346.00;;;;345360;28;96392;-92
2022/06/27 00:11:36;;;;;;;;;;;19.20;99.90;19.20;99340.00;;;;344805;28;83387;-93
2022/06/27 00:11:48;;;;;;;;;;;19.20;99.90;19.20;99338.00;;;;345304;28;96710;-92
2022/06/27 00:12:00;;;;;;;;;;;19.20;99.90;19.30;99337.00;;;;347534;28;82418;-92
2022/06/27 00:12:12;;;;;;;;;;;19.20;99.90;19.30;99335.00;;;;348204;27;96709;-92
2022/06/27 00:12:24;;;;;;;;;;;19.20;99.90;19.30;99334.00;;;;345791;28;83284;-91
2022/06/27 00:12:36;;;;;;;;;;;19.20;99.90;19.30;99347.00;;;;346715;28;96775;-92
2022/06/27 00:12:49;;;;;;;;;;;19.20;99.90;19.30;99339.00;;;;348876;27;83375;-92
2022/06/27 00:13:01;;;;;;;;;;;19.20;99.90;19.20;99339.00;;;;348084;27;96111;-92
2022/06/27 00:13:13;;;;;;;;;;;19.20;99.90;19.10;99345.00;;;;347112;28;82662;-92
2022/06/27 00:13:25;;;;;;;;;;;19.20;99.90;19.20;99344.00;;;;345832;28;95925;-92
2022/06/27 00:13:37;;;;;;;;;;;19.20;99.90;19.20;99341.00;;;;346036;28;82440;-93
2022/06/27 00:13:48;;;;;;;;;;;19.20;99.90;19.20;99340.00;;;;345401;28;96543;-92
2022/06/27 00:14:00;;;;;;;;;;;19.20;99.90;19.10;99346.00;;;;345996;28;83220;-93
2022/06/27 00:14:12;;;;;;;;;;;19.10;99.90;19.20;99340.00;;;;345462;28;97178;-93
2022/06/27 00:14:24;;;;;;;;;;;19.10;99.90;19.20;99344.00;;;;346256;28;83302;-94
2022/06/27 00:14:36;;;;;;;;;;;19.20;99.90;19.10;99342.00;;;;346751;28;95495;-93
2022/06/27 00:14:48;;;;;;;;;;;19.10;99.90;19.20;99334.00;;;;346238;28;82495;-93
2022/06/27 00:15:00;;;;;;;;;;;19.10;99.90;19.30;99346.00;;;;347961;27;96834;-93
2022/06/27 00:15:12;;;;;;;;;;;19.10;99.90;19.30;99339.00;;;;346097;28;83454;-93
2022/06/27 00:15:23;;;;;;;;;;;19.10;99.90;19.40;99335.00;;;;346651;28;96517;-93
2022/06/27 00:15:35;;;;;;;;;;;19.20;99.90;19.40;99337.00;;;;349903;27;83349;-93
2022/06/27 00:15:47;;;;;;;;;;;19.20;99.90;19.40;99342.00;;;;349546;27;96558;-94
2022/06/27 00:15:59;;;;;;;;;;;19.20;99.90;19.40;99339.00;;;;346100;28;82374;-93
2022/06/27 00:16:19;;;;;;;;;;;19.20;99.90;19.40;99346.00;;;;345487;28;95573;-94
2022/06/27 00:16:51;;;;;;;;;;;19.20;99.90;19.50;99349.00;;;;346130;28;83426;-94
2022/06/27 00:17:03;;;;;;;;;;;19.20;99.90;19.40;99354.00;;;;345353;28;97272;-93
2022/06/27 00:17:16;;;;;;;;;;;19.20;99.90;19.30;99344.00;;;;344824;28;82462;-93
2022/06/27 00:17:28;;;;;;;;;;;19.20;99.90;19.30;99341.00;;;;343981;28;97437;-92
2022/06/27 00:17:40;;;;;;;;;;;19.20;99.90;19.30;99345.00;;;;344739;28;82336;-94
2022/06/27 00:17:52;;;;;;;;;;;19.20;99.90;19.30;99339.00;;;;345448;28;95147;-94
2022/06/27 00:18:04;;;;;;;;;;;19.20;99.90;19.30;99340.00;;;;344739;28;83514;-93
2022/06/27 00:18:15;;;;;;;;;;;19.20;99.90;19.30;99340.00;;;;344034;28;95115;-93
2022/06/27 00:18:27;;;;;;;;;;;19.20;99.90;19.30;99344.00;;;;347387;28;83314;-93
2022/06/27 00:18:39;;;;;;;;;;;19.20;99.90;19.40;99339.00;;;;346649;28;96540;-93
2022/06/27 00:18:51;;;;;;;;;;;19.20;99.90;19.40;99337.00;;;;348987;27;83671;-94
2022/06/27 00:19:02;;;;;;;;;;;19.20;99.90;19.40;99344.00;;;;345490;28;93200;-93
2022/06/27 00:19:14;;;;;;;;;;;19.20;99.90;19.30;99342.00;;;;347311;28;83513;-94
2022/06/27 00:19:26;;;;;;;;;;;19.20;99.90;19.40;99346.00;;;;345291;28;96176;-94
2022/06/27 00:19:38;;;;;;;;;;;19.20;99.90;19.40;99340.00;;;;346262;28;83315;-93
2022/06/27 00:19:49;;;;;;;;;;;19.20;99.90;19.20;99346.00;;;;344038;28;95755;-94
2022/06/27 00:20:02;;;;;;;;;;;19.20;99.90;19.10;99339.00;;;;347242;27;82587;-93
2022/06/27 00:20:14;;;;;;;;;;;19.20;99.90;19.30;99339.00;;;;344111;28;95505;-93
2022/06/27 00:20:26;;;;;;;;;;;19.20;99.90;19.20;99334.00;;;;346021;28;83313;-93
2022/06/27 00:20:37;;;;;;;;;;;19.20;99.90;19.20;99338.00;;;;345308;28;95467;-93
2022/06/27 00:20:49;;;;;;;;;;;19.20;99.90;19.20;99336.00;;;;347532;28;82535;-93
2022/06/27 00:21:01;;;;;;;;;;;19.20;99.90;19.10;99340.00;;;;343922;28;97016;-93
2022/06/27 00:21:13;;;;;;;;;;;19.20;99.90;19.20;99336.00;;;;344777;28;83379;-93
2022/06/27 00:21:25;;;;;;;;;;;19.10;99.90;19.10;99334.00;;;;345233;28;98137;-93
2022/06/27 00:21:36;;;;;;;;;;;19.10;99.90;19.20;99346.00;;;;346208;28;83328;-93
2022/06/27 00:21:48;;;;;;;;;;;19.10;99.90;19.30;99329.00;;;;344007;28;96684;-93
2022/06/27 00:22:00;;;;;;;;;;;19.20;99.90;19.30;99336.00;;;;344686;28;83311;-93
2022/06/27 00:22:13;;;;;;;;;;;19.20;99.90;19.30;99336.00;;;;346086;28;96721;-93
2022/06/27 00:22:26;;;;;;;;;;;19.20;99.90;19.30;99332.00;;;;343500;28;83281;-93
2022/06/27 00:22:37;;;;;;;;;;;19.20;99.90;19.30;99338.00;;;;346643;28;97238;-92
2022/06/27 00:22:51;;;;;;;;;;;19.20;99.90;19.30;99342.00;;;;346222;28;83345;-94
2022/06/27 00:23:03;;;;;;;;;;;19.20;99.90;19.30;99330.00;;;;345306;28;96277;-93
2022/06/27 00:23:15;;;;;;;;;;;19.20;99.90;19.20;99333.00;;;;343296;28;83297;-93
2022/06/27 00:23:26;;;;;;;;;;;19.20;99.90;19.30;99333.00;;;;346057;28;96635;-93
2022/06/27 00:23:38;;;;;;;;;;;19.20;99.90;19.30;99334.00;;;;344833;28;83558;-93
2022/06/27 00:23:50;;;;;;;;;;;19.20;99.90;19.20;99342.00;;;;345401;28;95698;-93
2022/06/27 00:24:02;;;;;;;;;;;19.20;99.90;19.20;99341.00;;;;347449;28;83540;-94
2022/06/27 00:24:14;;;;;;;;;;;19.10;99.90;19.20;99335.00;;;;346833;28;96736;-94
2022/06/27 00:24:26;;;;;;;;;;;19.10;99.90;19.20;99333.00;;;;347401;28;82572;-93
2022/06/27 00:24:37;;;;;;;;;;;19.10;99.90;19.30;99329.00;;;;345351;28;96139;-94
2022/06/27 00:24:49;;;;;;;;;;;19.10;99.90;19.30;99336.00;;;;349880;27;83500;-93
2022/06/27 00:25:01;;;;;;;;;;;19.10;99.90;19.30;99327.00;;;;345248;28;96684;-93
2022/06/27 00:25:13;;;;;;;;;;;19.20;99.90;19.30;99334.00;;;;344604;28;83577;-93
2022/06/27 00:25:24;;;;;;;;;;;19.20;99.90;19.20;99326.00;;;;345269;28;96794;-93
2022/06/27 00:25:36;;;;;;;;;;;19.20;99.90;19.20;99337.00;;;;346104;28;83472;-94
2022/06/27 00:25:48;;;;;;;;;;;19.20;99.90;19.30;99330.00;;;;345293;28;95869;-93
2022/06/27 00:26:00;;;;;;;;;;;19.20;99.90;19.20;99327.00;;;;347432;28;83435;-93
2022/06/27 00:26:12;;;;;;;;;;;19.20;99.90;19.10;99335.00;;;;346614;28;96821;-93
2022/06/27 00:26:23;;;;;;;;;;;19.20;99.90;19.20;99327.00;;;;344778;28;83422;-93
2022/06/27 00:26:35;;;;;;;;;;;19.10;99.90;19.20;99336.00;;;;346666;27;95852;-93
2022/06/27 00:26:48;;;;;;;;;;;19.10;99.90;19.20;99333.00;;;;347410;28;83454;-94
2022/06/27 00:27:00;;;;;;;;;;;19.10;99.90;19.30;99335.00;;;;343983;28;95589;-93
2022/06/27 00:27:12;;;;;;;;;;;19.10;99.90;19.30;99338.00;;;;347571;28;82521;-93
2022/06/27 00:27:24;;;;;;;;;;;19.10;99.90;19.30;99333.00;;;;345227;28;97427;-92
2022/06/27 00:27:35;;;;;;;;;;;19.10;99.90;19.20;99330.00;;;;344740;28;83447;-94
2022/06/27 00:27:47;;;;;;;;;;;19.10;99.90;19.20;99334.00;;;;344036;28;95755;-94
2022/06/27 00:27:59;;;;;;;;;;;19.20;99.90;19.10;99333.00;;;;347561;28;82372;-93
2022/06/27 00:28:11;;;;;;;;;;;19.10;99.90;19.20;99333.00;;;;346986;27;95790;-93
2022/06/27 00:28:22;;;;;;;;;;;19.10;99.90;19.20;99331.00;;;;344895;28;82365;-93
2022/06/27 00:28:34;;;;;;;;;;;19.10;99.90;19.20;99340.00;;;;345262;28;96419;-94
2022/06/27 00:28:46;;;;;;;;;;;19.10;99.90;19.10;99339.00;;;;347512;28;83389;-93
2022/06/27 00:28:58;;;;;;;;;;;19.10;99.90;19.00;99329.00;;;;344066;28;95894;-93
2022/06/27 00:29:10;;;;;;;;;;;19.10;99.90;18.90;99339.00;;;;347594;28;82489;-93
2022/06/27 00:29:21;;;;;;;;;;;19.00;99.90;19.00;99340.00;;;;348055;27;97155;-93
2022/06/27 00:29:33;;;;;;;;;;;19.00;99.90;19.10;99335.00;;;;347570;28;83465;-93
2022/06/27 00:29:45;;;;;;;;;;;19.00;99.90;19.10;99335.00;;;;346882;28;95443;-93
2022/06/27 00:29:57;;;;;;;;;;;19.00;99.90;19.10;99338.00;;;;349076;27;82373;-93
2022/06/27 00:30:10;;;;;;;;;;;19.00;99.90;19.10;99341.00;;;;345343;28;96530;-94
2022/06/27 00:30:22;;;;;;;;;;;19.00;99.90;19.10;99342.00;;;;347562;28;82477;-94
2022/06/27 00:30:34;;;;;;;;;;;19.00;99.90;19.10;99341.00;;;;346780;28;96569;-93
2022/06/27 00:30:46;;;;;;;;;;;19.00;99.90;19.00;99341.00;;;;348920;27;83459;-93
2022/06/27 00:30:57;;;;;;;;;;;19.00;99.90;18.90;99344.00;;;;346851;28;94748;-93
2022/06/27 00:31:09;;;;;;;;;;;19.00;99.90;18.90;99342.00;;;;348076;27;83418;-93
2022/06/27 00:31:21;;;;;;;;;;;19.00;99.90;18.80;99337.00;;;;348119;27;97143;-93
2022/06/27 00:31:33;;;;;;;;;;;19.00;99.90;18.80;99333.00;;;;346187;28;82341;-94
2022/06/27 00:31:45;;;;;;;;;;;18.90;99.90;18.80;99332.00;;;;348160;27;94967;-92
2022/06/27 00:31:57;;;;;;;;;;;18.90;99.90;18.80;99338.00;;;;347461;27;82479;-93
2022/06/27 00:32:09;;;;;;;;;;;18.90;99.90;18.90;99335.00;;;;343932;28;95681;-93
2022/06/27 00:32:23;;;;;;;;;;;18.90;99.90;18.90;99338.00;;;;348940;27;82409;-93
2022/06/27 00:32:34;;;;;;;;;;;18.90;99.90;19.00;99338.00;;;;349561;27;96493;-93
2022/06/27 00:32:48;;;;;;;;;;;18.90;99.90;19.00;99339.00;;;;350257;27;83467;-93
2022/06/27 00:33:00;;;;;;;;;;;18.90;99.90;18.90;99337.00;;;;346869;28;96645;-92
2022/06/27 00:33:12;;;;;;;;;;;18.90;99.90;18.90;99338.00;;;;347572;28;83207;-93
2022/06/27 00:33:24;;;;;;;;;;;18.90;99.90;18.90;99335.00;;;;346622;28;96108;-93
2022/06/27 00:33:35;;;;;;;;;;;18.90;99.90;19.00;99341.00;;;;348954;27;83354;-93
2022/06/27 00:33:47;;;;;;;;;;;18.90;99.90;19.00;99344.00;;;;345479;28;95336;-93
2022/06/27 00:33:59;;;;;;;;;;;18.90;99.90;19.00;99339.00;;;;348051;27;83630;-93
2022/06/27 00:34:11;;;;;;;;;;;18.90;99.90;19.10;99347.00;;;;344712;28;95930;-93
2022/06/27 00:34:23;;;;;;;;;;;18.90;99.90;19.00;99336.00;;;;344841;28;82474;-93
2022/06/27 00:34:34;;;;;;;;;;;18.90;99.90;19.10;99339.00;;;;344026;28;96022;-93
2022/06/27 00:34:46;;;;;;;;;;;18.90;99.90;19.10;99339.00;;;;344868;28;82496;-93
2022/06/27 00:34:58;;;;;;;;;;;18.90;99.90;19.00;99337.00;;;;342839;28;95466;-93
2022/06/27 00:35:10;;;;;;;;;;;18.90;99.90;19.00;99337.00;;;;346098;28;83932;-93
2022/06/27 00:35:21;;;;;;;;;;;18.90;99.90;18.90;99342.00;;;;346545;28;97916;-93
2022/06/27 00:35:33;;;;;;;;;;;18.90;99.90;18.90;99340.00;;;;346088;28;83406;-93
2022/06/27 00:35:45;;;;;;;;;;;18.90;99.90;18.80;99344.00;;;;343952;28;96636;-92
2022/06/27 00:35:57;;;;;;;;;;;18.90;99.90;18.80;99337.00;;;;346125;28;82518;-89
2022/06/27 00:36:08;;;;;;;;;;;18.80;99.90;18.70;99333.00;;;;346720;28;96021;-93
2022/06/27 00:36:20;;;;;;;;;;;18.80;99.90;18.90;99335.00;;;;347604;28;83411;-93
2022/06/27 00:36:32;;;;;;;;;;;18.80;99.90;18.80;99341.00;;;;344007;28;96415;-92
2022/06/27 00:36:44;;;;;;;;;;;18.80;99.90;18.90;99332.00;;;;348789;27;83494;-93
2022/06/27 00:36:55;;;;;;;;;;;18.80;99.90;18.80;99338.00;;;;345253;28;96743;-92
2022/06/27 00:37:07;;;;;;;;;;;18.80;99.90;18.80;99334.00;;;;348843;27;82455;-87
2022/06/27 00:37:19;;;;;;;;;;;18.80;99.90;18.90;99335.00;;;;346498;28;98108;-88
2022/06/27 00:37:31;;;;;;;;;;;18.80;99.90;18.80;99345.00;;;;347470;28;83334;-88
2022/06/27 00:37:43;;;;;;;;;;;18.80;99.90;18.80;99336.00;;;;345326;28;96314;-88
2022/06/27 00:37:54;;;;;;;;;;;18.70;99.90;18.90;99336.00;;;;346015;28;83465;-88
2022/06/27 00:38:06;;;;;;;;;;;18.80;99.90;18.90;99335.00;;;;346682;28;95929;-88
2022/06/27 00:38:18;;;;;;;;;;;18.80;99.90;18.80;99339.00;;;;345913;28;83431;-88
2022/06/27 00:38:30;;;;;;;;;;;18.80;99.90;18.80;99337.00;;;;345191;28;96718;-88
2022/06/27 00:38:41;;;;;;;;;;;18.80;99.90;18.80;99336.00;;;;344656;28;82551;-88
2022/06/27 00:38:53;;;;;;;;;;;18.70;99.90;18.70;99342.00;;;;345326;28;96020;-88
2022/06/27 00:39:05;;;;;;;;;;;18.70;99.90;18.60;99339.00;;;;346111;28;83449;-88
2022/06/27 00:39:17;;;;;;;;;;;18.70;99.90;18.60;99336.00;;;;346624;28;97526;-88
2022/06/27 00:39:28;;;;;;;;;;;18.60;99.90;18.70;99337.00;;;;347550;28;83423;-89
2022/06/27 00:39:40;;;;;;;;;;;18.70;99.90;18.80;99337.00;;;;345309;28;97264;-88
2022/06/27 00:39:52;;;;;;;;;;;18.70;99.90;18.70;99341.00;;;;347461;28;83411;-89
2022/06/27 00:40:05;;;;;;;;;;;18.70;99.90;18.70;99330.00;;;;345185;28;96420;-88
2022/06/27 00:40:17;;;;;;;;;;;18.70;99.90;18.60;99334.00;;;;346113;28;83402;-87
2022/06/27 00:40:28;;;;;;;;;;;18.60;99.90;18.80;99332.00;;;;346688;28;96389;-88
2022/06/27 00:40:41;;;;;;;;;;;18.60;99.90;18.70;99335.00;;;;346149;28;82400;-89
2022/06/27 00:40:52;;;;;;;;;;;18.60;99.90;18.70;99337.00;;;;347823;27;94138;-88
2022/06/27 00:41:04;;;;;;;;;;;18.60;99.90;18.60;99333.00;;;;346103;28;83350;-88
2022/06/27 00:41:16;;;;;;;;;;;18.60;99.90;18.60;99339.00;;;;346487;27;97582;-87
2022/06/27 00:41:28;;;;;;;;;;;18.60;99.90;18.50;99339.00;;;;347452;28;83407;-87
2022/06/27 00:41:40;;;;;;;;;;;18.60;99.90;18.50;99337.00;;;;347786;27;96241;-88
2022/06/27 00:41:51;;;;;;;;;;;18.60;99.90;18.50;99329.00;;;;344569;28;83042;-87
2022/06/27 00:42:03;;;;;;;;;;;18.50;99.90;18.60;99333.00;;;;345102;28;94877;-88
2022/06/27 00:42:15;;;;;;;;;;;18.50;99.90;18.60;99331.00;;;;346121;28;82595;-88
2022/06/27 00:42:27;;;;;;;;;;;18.50;99.90;18.60;99332.00;;;;346705;28;96297;-88
2022/06/27 00:42:39;;;;;;;;;;;18.50;99.90;18.70;99336.00;;;;347290;28;83354;-88
2022/06/27 00:42:51;;;;;;;;;;;18.50;99.90;18.70;99331.00;;;;346744;28;93814;-89
2022/06/27 00:43:03;;;;;;;;;;;18.50;99.90;18.60;99321.00;;;;346039;28;83389;-88
2022/06/27 00:43:15;;;;;;;;;;;18.50;99.90;18.60;99324.00;;;;344626;28;97951;-89
2022/06/27 00:43:26;;;;;;;;;;;18.50;99.90;18.70;99328.00;;;;347490;28;83285;-88
2022/06/27 00:43:42;;;;;;;;;;;18.50;99.90;18.70;99326.00;;;;345421;28;95376;-89
2022/06/27 00:43:54;;;;;;;;;;;18.50;99.90;18.70;99326.00;;;;344729;28;83344;-88
2022/06/27 00:44:06;;;;;;;;;;;18.60;99.90;18.70;99322.00;;;;349374;27;95136;-88
2022/06/27 00:44:38;;;;;;;;;;;18.60;99.90;18.80;99310.00;;;;348876;27;83287;-89
2022/06/27 00:44:50;;;;;;;;;;;18.60;99.90;18.80;99319.00;;;;346767;28;94304;-88
2022/06/27 00:45:02;;;;;;;;;;;18.60;99.90;18.80;99316.00;;;;349507;27;83431;-88
2022/06/27 00:45:13;;;;;;;;;;;18.60;99.90;18.90;99321.00;;;;346648;28;95901;-88
2022/06/27 00:45:25;;;;;;;;;;;18.60;99.90;18.90;99322.00;;;;348836;27;83317;-88
2022/06/27 00:45:37;;;;;;;;;;;18.60;99.90;18.90;99317.00;;;;346276;27;95029;-87
2022/06/27 00:45:49;;;;;;;;;;;18.60;99.90;18.90;99315.00;;;;347419;28;82607;-89
2022/06/27 00:46:01;;;;;;;;;;;18.60;99.90;18.90;99319.00;;;;347868;27;96608;-88
2022/06/27 00:46:12;;;;;;;;;;;18.60;99.90;18.90;99308.00;;;;346833;28;83604;-87
2022/06/27 00:46:24;;;;;;;;;;;18.70;99.90;18.90;99315.00;;;;347709;27;96481;-88
2022/06/27 00:46:36;;;;;;;;;;;18.70;99.90;18.90;99309.00;;;;346028;28;83486;-88
2022/06/27 00:46:48;;;;;;;;;;;18.70;99.90;18.90;99314.00;;;;345250;28;95370;-89
2022/06/27 00:47:00;;;;;;;;;;;18.70;99.90;18.90;99304.00;;;;347418;28;82423;-88
2022/06/27 00:47:13;;;;;;;;;;;18.70;99.90;18.90;99309.00;;;;345338;28;97174;-89
2022/06/27 00:47:24;;;;;;;;;;;18.70;99.90;19.00;99320.00;;;;344760;28;83284;-89
2022/06/27 00:47:36;;;;;;;;;;;18.70;99.90;19.00;99313.00;;;;343938;28;97350;-87
2022/06/27 00:47:48;;;;;;;;;;;18.70;99.90;18.90;99306.00;;;;346071;28;83416;-88
2022/06/27 00:48:00;;;;;;;;;;;18.70;99.90;18.90;99312.00;;;;343908;28;96411;-88
2022/06/27 00:48:11;;;;;;;;;;;18.70;99.90;18.90;99310.00;;;;344752;28;83518;-88
2022/06/27 00:48:23;;;;;;;;;;;18.70;99.90;18.90;99299.00;;;;344009;28;94273;-88
2022/06/27 00:48:35;;;;;;;;;;;18.70;99.90;18.80;99299.00;;;;344726;28;83381;-88
2022/06/27 00:48:47;;;;;;;;;;;18.70;99.90;18.80;99304.00;;;;343929;28;93856;-89
2022/06/27 00:48:58;;;;;;;;;;;18.70;99.90;18.90;99308.00;;;;347430;28;83372;-88
2022/06/27 00:49:10;;;;;;;;;;;18.70;99.90;18.90;99308.00;;;;343928;28;95205;-89
2022/06/27 00:49:22;;;;;;;;;;;18.70;99.90;18.90;99304.00;;;;346099;28;83359;-88
2022/06/27 00:49:34;;;;;;;;;;;18.70;99.90;18.90;99308.00;;;;346641;28;96217;-88
2022/06/27 00:49:46;;;;;;;;;;;18.70;99.90;19.00;99309.00;;;;348862;27;83265;-88
2022/06/27 00:49:57;;;;;;;;;;;18.70;99.90;18.90;99308.00;;;;345182;28;96744;-88
2022/06/27 00:50:09;;;;;;;;;;;18.80;99.90;18.90;99299.00;;;;346080;28;83347;-88
2022/06/27 00:50:21;;;;;;;;;;;18.80;99.90;19.00;99300.00;;;;346714;28;97224;-88
2022/06/27 00:50:33;;;;;;;;;;;18.80;99.90;18.90;99306.00;;;;346048;28;83299;-88
2022/06/27 00:50:45;;;;;;;;;;;18.80;99.90;18.90;99298.00;;;;343861;28;96683;-87
2022/06/27 00:50:56;;;;;;;;;;;18.80;99.90;18.80;99309.00;;;;347678;27;83565;-88
2022/06/27 00:51:10;;;;;;;;;;;18.80;99.90;18.80;99312.00;;;;348078;27;95659;-88
2022/06/27 00:51:24;;;;;;;;;;;18.80;99.90;18.80;99307.00;;;;347404;28;83460;-88
2022/06/27 00:51:36;;;;;;;;;;;18.80;99.90;18.80;99307.00;;;;346001;28;98416;-88
2022/06/27 00:51:47;;;;;;;;;;;18.70;99.90;18.90;99308.00;;;;347328;28;83448;-88
2022/06/27 00:51:59;;;;;;;;;;;18.80;99.90;18.80;99319.00;;;;345197;28;96289;-88
2022/06/27 00:52:12;;;;;;;;;;;18.70;99.90;18.90;99317.00;;;;348056;27;84162;-88
2022/06/27 00:52:24;;;;;;;;;;;18.70;99.90;18.90;99315.00;;;;346709;28;95527;-88
2022/06/27 00:52:37;;;;;;;;;;;18.70;99.90;18.80;99310.00;;;;346029;28;82373;-88
2022/06/27 00:52:49;;;;;;;;;;;18.80;99.90;18.80;99316.00;;;;345365;28;94167;-88
2022/06/27 00:53:01;;;;;;;;;;;18.70;99.90;18.90;99304.00;;;;343318;28;83436;-88
2022/06/27 00:53:13;;;;;;;;;;;18.70;99.90;18.80;99316.00;;;;343917;28;94155;-88
2022/06/27 00:53:25;;;;;;;;;;;18.70;99.90;18.80;99319.00;;;;344679;28;83470;-88
2022/06/27 00:53:36;;;;;;;;;;;18.70;99.90;18.90;99309.00;;;;346681;28;97596;-88
2022/06/27 00:53:48;;;;;;;;;;;18.70;99.90;18.80;99314.00;;;;348870;27;83454;-89
2022/06/27 00:54:00;;;;;;;;;;;18.70;99.90;18.80;99310.00;;;;346666;28;93722;-88
2022/06/27 00:54:12;;;;;;;;;;;18.70;99.90;18.80;99315.00;;;;349015;27;83178;-88
2022/06/27 00:54:23;;;;;;;;;;;18.70;99.90;18.70;99317.00;;;;346746;28;93848;-88
2022/06/27 00:54:36;;;;;;;;;;;18.70;99.90;18.70;99310.00;;;;348777;27;83463;-88
2022/06/27 00:54:48;;;;;;;;;;;18.70;99.90;18.70;99315.00;;;;348067;27;97206;-88
2022/06/27 00:54:59;;;;;;;;;;;18.70;99.90;18.80;99305.00;;;;350146;27;83543;-88
2022/06/27 00:55:11;;;;;;;;;;;18.70;99.90;18.80;99309.00;;;;345954;28;95376;-88
2022/06/27 00:55:23;;;;;;;;;;;18.60;99.90;18.70;99312.00;;;;344625;28;83525;-88
2022/06/27 00:55:35;;;;;;;;;;;18.70;99.90;18.70;99300.00;;;;346659;28;96362;-88
2022/06/27 00:55:46;;;;;;;;;;;18.70;99.90;18.80;99308.00;;;;348563;27;84125;-88
2022/06/27 00:55:58;;;;;;;;;;;18.70;99.90;18.70;99308.00;;;;347956;27;96989;-88
2022/06/27 00:56:10;;;;;;;;;;;18.70;99.90;18.70;99305.00;;;;344486;28;83367;-88
2022/06/27 00:56:22;;;;;;;;;;;18.70;99.90;18.60;99297.00;;;;345323;28;96614;-88
2022/06/27 00:56:34;;;;;;;;;;;18.60;99.90;18.70;99296.00;;;;348823;27;83108;-88
2022/06/27 00:56:45;;;;;;;;;;;18.60;99.90;18.80;99299.00;;;;345250;28;96720;-88
2022/06/27 00:56:57;;;;;;;;;;;18.60;99.90;18.70;99311.00;;;;346050;28;83361;-88
2022/06/27 00:57:10;;;;;;;;;;;18.60;99.90;18.70;99311.00;;;;345317;28;94529;-88
2022/06/27 00:57:22;;;;;;;;;;;18.60;99.90;18.60;99306.00;;;;344592;28;83547;-87
2022/06/27 00:57:34;;;;;;;;;;;18.60;99.90;18.70;99298.00;;;;343700;28;98015;-88
2022/06/27 00:57:46;;;;;;;;;;;18.60;99.90;18.70;99295.00;;;;346149;28;83358;-88
2022/06/27 00:57:59;;;;;;;;;;;18.60;99.90;18.60;99308.00;;;;346613;28;97030;-88
2022/06/27 00:58:10;;;;;;;;;;;18.60;99.90;18.70;99305.00;;;;347763;27;83646;-88
2022/06/27 00:58:22;;;;;;;;;;;18.60;99.90;18.60;99305.00;;;;348071;27;96458;-88
2022/06/27 00:58:34;;;;;;;;;;;18.60;99.90;18.70;99300.00;;;;344621;28;83206;-88
2022/06/27 00:58:46;;;;;;;;;;;18.60;99.90;18.70;99300.00;;;;343679;28;96989;-88
2022/06/27 00:58:57;;;;;;;;;;;18.60;99.90;18.70;99307.00;;;;348751;27;83445;-88
2022/06/27 00:59:09;;;;;;;;;;;18.60;99.90;18.80;99304.00;;;;346536;28;96435;-88
2022/06/27 00:59:21;;;;;;;;;;;18.60;99.90;18.90;99295.00;;;;348836;27;82434;-88
2022/06/27 00:59:34;;;;;;;;;;;18.60;99.90;18.90;99305.00;;;;346587;28;98002;-88
2022/06/27 00:59:46;;;;;;;;;;;18.60;99.90;18.90;99304.00;;;;347509;28;83436;-88
2022/06/27 00:59:57;;;;;;;;;;;18.60;99.90;18.90;99292.00;;;;345294;28;93756;-88